Startpagina
METAR-TAF:

METAR-TAF

Vliegvelden :

Koror, Babeldaob, Palau

Roman Tmetuchl International Airport

breedte: 07-22N, lengte: 134-32E, hoogte: 54 m

Actueel weer

Dit bericht is 37 minuten geleden gemaakt, om 17:50 UTC
Wind 5 kt uit het oostnoordoosten met uitschieters tot 15 kt
Temperatuur 26°C
Vochtigheid 94%
Druk 1008 hPa
Zicht: 22.5 km
Gebroken wolken op 1600 ft, Cumulonimbus.
Geheel bewolkt op 29000 ft

METAR: PTRO 231750Z 07005G15KT 14SM BKN016CB OVC290 26/25 A2978 RMK CB ALQDS

Tijdstip: 03:27 (18:27 UTC)

Verwachting

Dit bericht is 1 uur en het 7 minuten geleden gemaakt, om 17:20 UTC
Verwachting geldig van 23 om 18 UTC tot 24 om 18 UTC
Wind 10 kt uit het oostnoordoosten met uitschieters tot 16 kt
Zicht: 10 km
Verspreide wolken op 1600 ft
Gebroken wolken op 12000 ft
buien in de omgeving

TAF: PTRO 231720Z 2318/2418 07010G16KT P6SM VCSH SCT016 BKN120

Waarnemingen en weersverwachtingen van meer dan 4000 vliegvelden (METAR en TAF).

De beschikbare stations zijn de gele en rode punten op de kaart.

Ga met uw muis naar het station om de naam te zien.

Klik dan om waarnemingen en weersverwachtingen te zien.

kaart wijzigen: klik op de groene knoppen met een zwart kruis om in te zoomen, op de groene knop met een streepje om uit te zoomen of op de groene pijlen voor aangrenzende kaarten.


METAR-TAF: